Time;durP1;ratioP1;P1;durP2;ratioP2;P2;SDS_P1;SDS_P2;PMS_P1;PMS_P2;Temp;Humidity;BMP_temperature;BMP_pressure;BME280_temperature;BME280_humidity;BME280_pressure;Samples;Min_cycle;Max_cycle;Signal;HPM_P1;HPM_P2
2023/04/19 00:01:22;;;;;;;13.07;11.10;;;9.90;99.90;;;;;;4895907;29;20224;-77
2023/04/19 00:03:49;;;;;;;14.43;13.03;;;9.90;99.90;;;;;;4901632;29;20224;-78
2023/04/19 00:06:16;;;;;;;15.90;14.50;;;9.90;99.90;;;;;;4891131;29;20201;-77
2023/04/19 00:08:44;;;;;;;11.33;9.87;;;9.90;99.90;;;;;;4891338;29;20202;-78
2023/04/19 00:11:11;;;;;;;17.87;16.17;;;9.90;99.90;;;;;;4896886;29;20209;-77
2023/04/19 00:13:37;;;;;;;16.90;15.30;;;9.90;99.90;;;;;;4900237;29;20213;-78
2023/04/19 00:16:06;;;;;;;12.97;11.67;;;9.90;99.90;;;;;;4902044;29;20262;-78
2023/04/19 00:18:32;;;;;;;13.07;9.97;;;9.90;99.90;;;;;;4894610;29;20197;-77
2023/04/19 00:20:59;;;;;;;13.20;11.30;;;9.90;99.90;;;;;;4895887;29;20232;-78
2023/04/19 00:23:26;;;;;;;13.77;11.80;;;9.80;99.90;;;;;;4894040;29;20236;-78
2023/04/19 00:25:54;;;;;;;14.40;11.40;;;9.80;99.90;;;;;;4892830;29;20256;-77
2023/04/19 00:28:21;;;;;;;19.70;17.90;;;9.80;99.90;;;;;;4897002;29;20784;-78
2023/04/19 00:30:48;;;;;;;18.23;16.63;;;9.80;99.90;;;;;;4891482;29;20229;-77
2023/04/19 00:33:15;;;;;;;18.40;16.80;;;9.80;99.90;;;;;;4893457;29;20220;-78
2023/04/19 00:35:42;;;;;;;18.17;16.47;;;9.80;99.90;;;;;;4893499;29;20213;-78
2023/04/19 00:38:09;;;;;;;17.67;16.00;;;9.80;99.90;;;;;;4891980;29;20277;-78
2023/04/19 00:40:36;;;;;;;17.90;16.20;;;9.80;99.90;;;;;;4891750;29;20201;-77
2023/04/19 00:43:06;;;;;;;19.67;17.77;;;9.70;99.90;;;;;;4892503;29;20264;-78
2023/04/19 00:45:35;;;;;;;20.33;16.37;;;9.70;99.90;;;;;;4888863;29;20787;-77
2023/04/19 00:48:02;;;;;;;18.87;16.97;;;9.70;99.90;;;;;;4889363;29;20264;-78
2023/04/19 00:50:29;;;;;;;18.67;16.93;;;9.70;99.90;;;;;;4898445;29;20224;-78
2023/04/19 00:52:57;;;;;;;18.63;16.83;;;9.70;99.90;;;;;;4913224;29;20200;-77
2023/04/19 00:55:25;;;;;;;22.33;20.33;;;9.70;99.90;;;;;;4899497;29;20580;-77
2023/04/19 00:57:52;;;;;;;17.73;16.13;;;9.70;99.90;;;;;;4892866;29;20236;-78
2023/04/19 01:00:20;;;;;;;17.67;16.07;;;9.70;99.90;;;;;;4892555;29;20205;-78
2023/04/19 01:02:47;;;;;;;19.97;18.07;;;9.70;99.90;;;;;;4893676;29;20200;-77
2023/04/19 01:05:15;;;;;;;20.60;18.67;;;9.70;99.90;;;;;;4891540;29;20204;-77
2023/04/19 01:07:42;;;;;;;20.93;18.80;;;9.60;99.90;;;;;;4889201;29;20224;-77
2023/04/19 01:10:10;;;;;;;19.53;17.73;;;9.60;99.90;;;;;;4889086;29;20776;-79
2023/04/19 01:12:37;;;;;;;17.83;16.27;;;9.60;99.90;;;;;;4892199;29;20209;-77
2023/04/19 01:15:04;;;;;;;18.40;16.60;;;9.60;99.90;;;;;;4893068;29;20197;-78
2023/04/19 01:17:34;;;;;;;17.33;15.77;;;9.60;99.90;;;;;;4892927;29;20712;-78
2023/04/19 01:20:06;;;;;;;18.50;16.80;;;9.60;99.90;;;;;;4893455;29;20196;-78
2023/04/19 01:22:36;;;;;;;18.10;16.60;;;9.60;99.90;;;;;;4890461;29;20201;-78
2023/04/19 01:25:06;;;;;;;19.00;17.20;;;9.60;99.90;;;;;;4893635;29;20303;-78
2023/04/19 01:27:33;;;;;;;18.07;16.33;;;9.60;99.90;;;;;;4886994;29;20233;-78
2023/04/19 01:29:59;;;;;;;18.10;16.40;;;9.50;99.90;;;;;;4897114;29;20226;-78
2023/04/19 01:32:27;;;;;;;19.27;17.47;;;9.50;99.90;;;;;;4892908;29;20230;-77
2023/04/19 01:34:56;;;;;;;20.10;18.20;;;9.50;99.90;;;;;;4899607;29;20192;-77
2023/04/19 01:37:22;;;;;;;21.63;19.63;;;9.50;99.90;;;;;;4912185;29;20228;-78
2023/04/19 01:39:51;;;;;;;19.20;17.40;;;9.50;99.90;;;;;;4907143;29;20204;-77
2023/04/19 01:42:17;;;;;;;21.90;19.87;;;9.50;99.90;;;;;;4908468;29;20204;-77
2023/04/19 01:44:44;;;;;;;19.50;17.70;;;9.50;99.90;;;;;;4907770;29;20204;-78
2023/04/19 01:47:11;;;;;;;20.57;18.53;;;9.50;99.90;;;;;;4908397;29;20225;-78
2023/04/19 01:49:40;;;;;;;17.37;15.73;;;9.50;99.90;;;;;;4897109;29;20217;-78
2023/04/19 01:52:06;;;;;;;17.67;16.07;;;9.50;99.90;;;;;;4902901;29;20260;-77
2023/04/19 01:54:33;;;;;;;18.00;16.37;;;9.50;99.90;;;;;;4895889;29;20224;-78
2023/04/19 01:57:02;;;;;;;18.43;16.73;;;9.50;99.90;;;;;;4896884;29;20220;-78
2023/04/19 01:59:29;;;;;;;18.93;16.90;;;9.50;99.90;;;;;;4893395;29;20582;-78
2023/04/19 02:01:56;;;;;;;20.03;18.20;;;9.50;99.90;;;;;;4892265;29;20208;-78
2023/04/19 02:04:24;;;;;;;19.40;17.60;;;9.50;99.90;;;;;;4890693;29;20201;-78
2023/04/19 02:06:51;;;;;;;19.33;17.63;;;9.50;99.90;;;;;;4900460;29;20261;-78
2023/04/19 02:09:18;;;;;;;19.20;17.50;;;9.50;99.90;;;;;;4898573;29;20216;-78
2023/04/19 02:11:46;;;;;;;19.80;17.73;;;9.40;99.90;;;;;;4897038;29;20272;-77
2023/04/19 02:14:14;;;;;;;18.67;17.00;;;9.40;99.90;;;;;;4892681;29;20277;-78
2023/04/19 02:16:41;;;;;;;19.13;17.33;;;9.40;99.90;;;;;;4894243;29;20708;-77
2023/04/19 02:19:08;;;;;;;21.40;19.33;;;9.40;99.90;;;;;;4895320;29;20734;-78
2023/04/19 02:21:35;;;;;;;19.90;18.00;;;9.40;99.90;;;;;;4891415;29;20284;-77
2023/04/19 02:24:01;;;;;;;18.90;17.10;;;9.40;99.90;;;;;;4895657;29;20209;-78
2023/04/19 02:26:28;;;;;;;20.53;18.53;;;9.40;99.90;;;;;;4897446;29;20491;-77
2023/04/19 02:28:55;;;;;;;20.63;18.37;;;9.30;99.90;;;;;;4893014;29;20209;-77
2023/04/19 02:31:23;;;;;;;19.93;18.13;;;9.30;99.90;;;;;;4895565;29;20776;-78
2023/04/19 02:33:50;;;;;;;20.93;18.83;;;9.30;99.90;;;;;;4898324;29;20253;-78
2023/04/19 02:36:17;;;;;;;20.53;18.53;;;9.30;99.90;;;;;;4894645;29;20684;-78
2023/04/19 02:38:44;;;;;;;20.50;18.53;;;9.20;99.90;;;;;;4894395;29;20204;-78
2023/04/19 02:41:10;;;;;;;21.73;19.83;;;9.20;99.90;;;;;;4890558;29;20234;-82
2023/04/19 02:43:39;;;;;;;21.50;19.40;;;9.20;99.90;;;;;;4893569;29;20198;-77
2023/04/19 02:46:06;;;;;;;21.60;19.50;;;9.20;99.90;;;;;;4892896;29;20231;-78
2023/04/19 02:48:34;;;;;;;23.03;20.93;;;9.10;99.90;;;;;;4893703;29;20219;-77
2023/04/19 02:51:01;;;;;;;20.77;18.77;;;9.10;99.90;;;;;;4896140;29;20233;-78
2023/04/19 02:53:28;;;;;;;20.53;18.73;;;9.00;99.90;;;;;;4916718;29;20201;-83
2023/04/19 02:55:55;;;;;;;20.93;18.93;;;9.00;99.90;;;;;;4906175;29;20228;-82
2023/04/19 02:58:22;;;;;;;20.67;18.67;;;9.00;99.90;;;;;;4898785;29;20683;-82
2023/04/19 03:00:59;;;;;;;23.20;21.07;;;9.00;99.90;;;;;;4899258;29;20572;-81
2023/04/19 03:03:26;;;;;;;21.17;19.13;;;9.00;99.90;;;;;;4911170;29;20231;-82
2023/04/19 03:05:54;;;;;;;22.07;20.17;;;8.90;99.90;;;;;;4905177;29;20249;-81
2023/04/19 03:08:21;;;;;;;20.57;18.67;;;9.00;99.90;;;;;;4908524;29;20216;-81
2023/04/19 03:10:49;;;;;;;22.50;20.30;;;9.00;99.90;;;;;;4892458;29;20267;-82
2023/04/19 03:13:16;;;;;;;20.63;18.70;;;8.90;99.90;;;;;;4898835;29;20244;-81
2023/04/19 03:15:43;;;;;;;20.27;18.50;;;9.00;99.90;;;;;;4898311;29;20591;-83
2023/04/19 03:18:11;;;;;;;22.03;19.87;;;9.00;99.90;;;;;;4905381;29;20234;-78
2023/04/19 03:20:40;;;;;;;21.63;19.63;;;9.00;99.90;;;;;;4902661;29;20208;-79
2023/04/19 03:23:09;;;;;;;21.30;19.37;;;9.00;99.90;;;;;;4890872;29;20213;-79
2023/04/19 03:25:36;;;;;;;21.27;19.27;;;9.00;99.90;;;;;;4893536;29;20266;-78
2023/04/19 03:28:35;;;;;;;21.63;19.77;;;8.90;99.90;;;;;;4891728;29;20253;-78
2023/04/19 03:31:28;;;;;;;21.43;19.63;;;8.90;99.90;;;;;;4890367;29;20324;-78
2023/04/19 03:33:55;;;;;;;24.33;22.13;;;8.90;99.90;;;;;;4886471;29;20225;-78
2023/04/19 03:36:28;;;;;;;22.20;20.27;;;9.00;99.90;;;;;;4899977;29;20303;-78
2023/04/19 03:38:56;;;;;;;29.83;27.33;;;8.90;99.90;;;;;;4894712;29;20231;-78
2023/04/19 03:41:25;;;;;;;30.83;28.30;;;9.00;99.90;;;;;;4894990;29;20553;-78
2023/04/19 03:44:12;;;;;;;22.67;20.77;;;8.90;99.90;;;;;;4894719;29;20239;-78
2023/04/19 03:46:45;;;;;;;26.27;24.07;;;8.90;99.90;;;;;;4889506;29;20216;-78
2023/04/19 03:49:12;;;;;;;24.67;22.60;;;8.90;99.90;;;;;;4901725;29;20229;-78
2023/04/19 03:51:41;;;;;;;24.80;22.47;;;8.90;99.90;;;;;;4893830;29;20595;-77
2023/04/19 03:54:09;;;;;;;26.80;24.60;;;8.90;99.90;;;;;;4893003;29;20219;-77
2023/04/19 03:56:37;;;;;;;28.40;25.90;;;8.90;99.90;;;;;;4888868;29;20261;-77
2023/04/19 03:59:04;;;;;;;24.00;21.80;;;8.90;99.90;;;;;;4890938;29;20630;-78
2023/04/19 04:01:34;;;;;;;21.23;19.53;;;8.90;99.90;;;;;;4893869;29;20193;-79
2023/04/19 04:04:02;;;;;;;26.80;24.60;;;8.90;99.90;;;;;;4890776;29;20205;-78
2023/04/19 04:06:29;;;;;;;23.43;21.33;;;8.90;99.90;;;;;;4890749;29;20221;-78
2023/04/19 04:08:56;;;;;;;21.03;19.23;;;8.90;99.90;;;;;;4892419;29;20212;-77
2023/04/19 04:11:26;;;;;;;25.20;22.90;;;8.90;99.90;;;;;;4892863;29;20231;-77
2023/04/19 04:13:53;;;;;;;22.97;20.73;;;8.90;99.90;;;;;;4892572;29;20211;-77
2023/04/19 04:16:25;;;;;;;21.30;19.27;;;8.90;99.90;;;;;;4891481;29;20220;-79
2023/04/19 04:18:53;;;;;;;23.17;20.97;;;8.90;99.90;;;;;;4887293;29;20209;-78
2023/04/19 04:21:23;;;;;;;21.10;19.20;;;8.90;99.90;;;;;;4889068;29;20676;-78
2023/04/19 04:23:50;;;;;;;24.20;22.00;;;8.90;99.90;;;;;;4892102;29;20209;-77
2023/04/19 04:26:29;;;;;;;22.10;20.10;;;8.90;99.90;;;;;;4910456;29;20222;-77
2023/04/19 04:29:09;;;;;;;20.70;18.90;;;8.90;99.90;;;;;;4899126;29;20204;-78
2023/04/19 04:31:39;;;;;;;22.10;20.13;;;8.90;99.90;;;;;;4894862;29;20592;-77
2023/04/19 04:34:08;;;;;;;23.27;20.97;;;8.90;99.90;;;;;;4891391;29;20206;-79
2023/04/19 04:36:36;;;;;;;21.00;19.30;;;8.90;99.90;;;;;;4887360;29;20703;-78
2023/04/19 04:39:03;;;;;;;22.10;20.13;;;8.90;99.90;;;;;;4896992;29;20201;-78
2023/04/19 04:41:32;;;;;;;24.40;22.27;;;8.90;99.90;;;;;;4891476;29;20702;-78
2023/04/19 04:43:59;;;;;;;25.33;22.70;;;8.90;99.90;;;;;;4884142;29;20209;-80
2023/04/19 04:46:26;;;;;;;22.23;20.13;;;8.80;99.90;;;;;;4897002;29;20231;-80
2023/04/19 04:48:53;;;;;;;25.07;22.77;;;8.80;99.90;;;;;;4895022;29;20240;-78
2023/04/19 04:51:20;;;;;;;25.23;23.03;;;8.80;99.90;;;;;;4886394;29;20217;-80
2023/04/19 04:53:50;;;;;;;29.40;26.90;;;8.90;99.90;;;;;;4886009;29;20225;-83
2023/04/19 04:56:17;;;;;;;23.83;21.60;;;8.80;99.90;;;;;;4884121;29;20209;-81
2023/04/19 04:58:45;;;;;;;23.73;21.43;;;8.90;99.90;;;;;;4885354;29;20216;-83
2023/04/19 05:01:18;;;;;;;23.47;21.13;;;8.90;99.90;;;;;;4885960;29;20215;-83
2023/04/19 05:03:45;;;;;;;23.63;21.53;;;8.90;99.90;;;;;;4892898;29;20243;-81
2023/04/19 05:06:17;;;;;;;23.97;21.77;;;8.90;99.90;;;;;;4884568;29;20197;-81
2023/04/19 05:08:44;;;;;;;21.80;19.90;;;9.00;99.90;;;;;;4882518;29;20201;-81
2023/04/19 05:11:34;;;;;;;24.57;22.10;;;9.00;99.90;;;;;;4880979;29;20262;-79
2023/04/19 05:14:03;;;;;;;24.83;22.63;;;9.10;99.90;;;;;;4892739;29;20200;-84
2023/04/19 05:16:32;;;;;;;23.90;21.50;;;9.20;99.90;;;;;;4892046;29;20342;-83
2023/04/19 05:18:59;;;;;;;25.27;22.93;;;9.30;99.90;;;;;;4888116;29;20622;-78
2023/04/19 05:21:29;;;;;;;25.87;23.57;;;9.30;99.90;;;;;;4890490;29;20220;-81
2023/04/19 05:23:56;;;;;;;23.07;20.80;;;9.30;99.90;;;;;;4889361;29;20276;-80
2023/04/19 05:26:23;;;;;;;23.97;21.87;;;9.40;99.90;;;;;;4891071;29;20252;-81
2023/04/19 05:28:51;;;;;;;23.23;21.07;;;9.40;99.90;;;;;;4899177;29;20211;-81
2023/04/19 05:31:24;;;;;;;21.83;19.70;;;9.30;99.90;;;;;;4882858;29;20784;-81
2023/04/19 05:34:09;;;;;;;20.40;18.40;;;9.50;99.90;;;;;;4885622;29;20671;-81
2023/04/19 05:36:37;;;;;;;20.70;18.90;;;9.80;99.90;;;;;;4886045;29;20221;-80
2023/04/19 05:39:04;;;;;;;23.10;20.90;;;9.90;99.90;;;;;;4897999;29;20593;-80
2023/04/19 05:41:31;;;;;;;22.03;19.93;;;9.80;99.90;;;;;;4900842;29;20220;-81
2023/04/19 05:43:57;;;;;;;22.57;20.60;;;9.80;99.90;;;;;;4899624;29;20208;-80
2023/04/19 05:46:27;;;;;;;22.07;19.97;;;9.70;99.90;;;;;;4899329;29;20233;-81
2023/04/19 05:48:55;;;;;;;20.30;18.57;;;9.70;99.90;;;;;;4897808;29;20293;-81
2023/04/19 05:51:24;;;;;;;20.40;18.50;;;9.70;99.90;;;;;;4898558;29;20692;-81
2023/04/19 05:54:00;;;;;;;20.67;18.80;;;9.70;99.90;;;;;;4885748;29;20683;-80
2023/04/19 05:56:27;;;;;;;20.47;18.60;;;9.80;99.90;;;;;;4891087;29;20597;-80
2023/04/19 05:58:55;;;;;;;23.13;20.73;;;9.90;99.90;;;;;;4895262;29;20224;-81
2023/04/19 06:01:22;;;;;;;22.13;20.13;;;9.80;99.90;;;;;;4888953;29;20212;-80
2023/04/19 06:03:51;;;;;;;22.93;20.73;;;9.80;99.90;;;;;;4890236;29;20247;-81
2023/04/19 06:06:18;;;;;;;22.53;20.50;;;9.80;99.90;;;;;;4891240;29;20198;-81
2023/04/19 06:08:45;;;;;;;21.33;19.43;;;9.90;99.90;;;;;;4880867;29;20278;-81
2023/04/19 06:11:12;;;;;;;23.87;21.67;;;9.90;99.90;;;;;;4895380;29;20241;-81
2023/04/19 06:13:39;;;;;;;24.10;21.90;;;10.10;99.90;;;;;;4889686;29;20212;-80
2023/04/19 06:16:08;;;;;;;25.53;23.23;;;10.10;99.90;;;;;;4882426;29;20241;-82
2023/04/19 06:18:34;;;;;;;23.87;20.67;;;10.20;99.90;;;;;;4884635;29;20202;-81
2023/04/19 06:21:03;;;;;;;22.70;20.60;;;10.20;99.90;;;;;;4885556;29;20205;-82
2023/04/19 06:23:30;;;;;;;23.50;21.27;;;10.20;99.90;;;;;;4886004;29;20201;-81
2023/04/19 06:25:56;;;;;;;22.87;20.77;;;10.10;99.90;;;;;;4884750;29;20209;-81
2023/04/19 06:28:23;;;;;;;22.13;20.13;;;10.10;99.90;;;;;;4882006;29;20293;-83
2023/04/19 06:30:50;;;;;;;21.43;19.53;;;10.10;99.90;;;;;;4887956;29;20225;-81
2023/04/19 06:33:17;;;;;;;23.70;21.43;;;10.20;99.90;;;;;;4890555;29;20770;-83
2023/04/19 06:35:43;;;;;;;22.50;20.50;;;10.00;99.90;;;;;;4886799;29;20266;-81
2023/04/19 06:38:11;;;;;;;21.47;19.53;;;10.10;99.90;;;;;;4883882;29;20229;-82
2023/04/19 06:40:39;;;;;;;23.47;21.37;;;10.10;99.90;;;;;;4884592;29;20304;-80
2023/04/19 06:43:06;;;;;;;22.87;20.80;;;10.10;99.90;;;;;;4886156;29;20206;-83
2023/04/19 06:45:33;;;;;;;23.50;21.07;;;10.00;99.90;;;;;;4893576;29;20295;-82
2023/04/19 06:48:00;;;;;;;22.73;20.63;;;9.90;99.90;;;;;;4892868;29;20613;-83
2023/04/19 06:50:27;;;;;;;22.20;20.10;;;9.90;99.90;;;;;;4894246;29;20212;-82
2023/04/19 06:52:54;;;;;;;21.47;19.47;;;9.90;99.90;;;;;;4892218;29;20235;-83
2023/04/19 06:55:22;;;;;;;24.47;22.10;;;9.90;99.90;;;;;;4890771;29;20209;-83
2023/04/19 06:57:49;;;;;;;21.90;20.00;;;9.90;99.90;;;;;;4892094;29;20241;-83
2023/04/19 07:00:17;;;;;;;22.73;20.73;;;9.90;99.90;;;;;;4888769;29;20201;-82
2023/04/19 07:02:44;;;;;;;20.53;18.73;;;10.00;99.90;;;;;;4886662;29;20205;-78
2023/04/19 07:05:11;;;;;;;20.43;18.47;;;10.00;99.90;;;;;;4884440;29;20248;-79
2023/04/19 07:07:40;;;;;;;20.53;18.73;;;10.20;99.90;;;;;;4884916;29;20217;-78
2023/04/19 07:10:08;;;;;;;20.23;18.40;;;10.30;99.90;;;;;;4881929;29;20295;-79
2023/04/19 07:12:36;;;;;;;21.77;19.77;;;10.30;99.90;;;;;;4894557;29;20225;-80
2023/04/19 07:15:04;;;;;;;22.07;20.03;;;10.40;99.90;;;;;;4879037;29;20210;-76
2023/04/19 07:17:31;;;;;;;20.80;18.60;;;10.40;99.90;;;;;;4884525;29;20360;-76
2023/04/19 07:19:57;;;;;;;14.27;11.93;;;10.40;99.90;;;;;;4887475;29;20211;-76
2023/04/19 07:22:24;;;;;;;17.43;13.67;;;10.40;99.90;;;;;;4882532;29;20265;-78
2023/04/19 07:24:51;;;;;;;20.37;18.33;;;10.40;99.90;;;;;;4885100;29;20579;-78
2023/04/19 07:27:18;;;;;;;17.63;15.90;;;10.40;99.90;;;;;;4884444;29;20575;-79
2023/04/19 07:29:46;;;;;;;14.77;12.53;;;10.40;99.90;;;;;;4880193;29;20266;-78
2023/04/19 07:32:14;;;;;;;14.87;11.77;;;10.50;99.90;;;;;;4881721;29;20286;-79
2023/04/19 07:34:42;;;;;;;14.17;10.90;;;10.60;99.90;;;;;;4885529;29;20291;-79
2023/04/19 07:37:09;;;;;;;16.87;15.20;;;10.70;99.90;;;;;;4894428;29;20227;-79
2023/04/19 07:39:36;;;;;;;15.37;13.40;;;10.70;99.90;;;;;;4896793;29;20680;-78
2023/04/19 07:42:03;;;;;;;13.80;12.20;;;10.70;99.90;;;;;;4899571;29;20249;-81
2023/04/19 07:44:30;;;;;;;17.07;15.40;;;10.80;99.90;;;;;;4896711;29;20207;-80
2023/04/19 07:46:58;;;;;;;17.13;15.43;;;10.90;99.90;;;;;;4895886;29;20267;-79
2023/04/19 07:49:25;;;;;;;16.87;14.33;;;10.90;99.90;;;;;;4897523;29;20201;-79
2023/04/19 07:51:51;;;;;;;17.83;16.03;;;10.90;99.90;;;;;;4894513;29;20263;-81
2023/04/19 07:54:20;;;;;;;22.17;20.27;;;10.90;99.90;;;;;;4897982;29;20209;-80
2023/04/19 07:56:47;;;;;;;21.63;19.73;;;10.90;99.90;;;;;;4896472;29;20238;-80
2023/04/19 07:59:13;;;;;;;19.73;18.03;;;10.90;99.90;;;;;;4897489;29;20682;-79
2023/04/19 08:01:40;;;;;;;21.03;19.13;;;11.00;99.90;;;;;;4895995;29;20231;-80
2023/04/19 08:04:08;;;;;;;20.43;18.43;;;11.10;99.90;;;;;;4895730;29;20222;-79
2023/04/19 08:06:38;;;;;;;16.20;14.60;;;11.10;99.90;;;;;;4894861;29;20720;-78
2023/04/19 08:09:05;;;;;;;17.57;15.77;;;11.30;99.90;;;;;;4896282;29;20750;-80
2023/04/19 08:11:32;;;;;;;17.77;16.17;;;11.40;99.90;;;;;;4895687;29;20227;-80
2023/04/19 08:13:59;;;;;;;15.30;13.73;;;11.50;99.90;;;;;;4896591;29;20211;-82
2023/04/19 08:16:26;;;;;;;15.23;13.60;;;11.50;99.90;;;;;;4896463;29;20235;-80
2023/04/19 08:18:53;;;;;;;18.67;17.03;;;11.60;99.90;;;;;;4888756;29;20203;-79
2023/04/19 08:21:21;;;;;;;16.33;14.73;;;11.70;99.90;;;;;;4895036;29;20231;-79
2023/04/19 08:23:48;;;;;;;19.60;17.70;;;11.90;99.90;;;;;;4891903;29;20218;-79
2023/04/19 08:26:15;;;;;;;14.87;12.90;;;12.00;99.90;;;;;;4890641;29;20203;-79
2023/04/19 08:28:42;;;;;;;14.83;13.27;;;12.00;99.90;;;;;;4889024;29;20212;-78
2023/04/19 08:31:10;;;;;;;15.20;13.60;;;12.20;99.90;;;;;;4895931;29;20219;-81
2023/04/19 08:33:37;;;;;;;14.47;11.13;;;12.20;99.90;;;;;;4894642;29;20249;-78
2023/04/19 08:36:10;;;;;;;12.90;11.60;;;12.40;99.90;;;;;;4893869;29;20308;-79
2023/04/19 08:38:40;;;;;;;17.30;15.60;;;12.50;99.90;;;;;;4894241;29;20201;-79
2023/04/19 08:41:06;;;;;;;11.03;9.77;;;12.70;99.90;;;;;;4895996;29;20205;-79
2023/04/19 08:43:37;;;;;;;17.53;16.03;;;12.80;99.90;;;;;;4895075;29;20193;-80
2023/04/19 08:46:04;;;;;;;11.50;10.30;;;12.90;99.90;;;;;;4893888;29;20227;-79
2023/04/19 08:48:35;;;;;;;12.53;11.13;;;13.00;99.90;;;;;;4894879;29;20204;-79
2023/04/19 08:51:03;;;;;;;13.77;12.30;;;13.20;99.90;;;;;;4890950;29;20354;-79
2023/04/19 08:53:30;;;;;;;13.87;10.50;;;13.20;99.90;;;;;;4903662;29;20700;-79
2023/04/19 08:55:58;;;;;;;12.43;11.17;;;13.10;99.90;;;;;;4894486;29;20204;-80
2023/04/19 08:58:28;;;;;;;17.63;16.03;;;13.20;99.90;;;;;;4891116;29;20586;-79
2023/04/19 09:00:57;;;;;;;17.00;15.40;;;13.20;99.90;;;;;;4894858;29;20253;-79
2023/04/19 09:03:24;;;;;;;17.20;15.50;;;13.30;99.90;;;;;;4902528;29;20216;-78
2023/04/19 09:05:51;;;;;;;18.00;16.50;;;13.20;99.90;;;;;;4902275;29;20202;-77
2023/04/19 09:08:23;;;;;;;19.33;17.73;;;13.20;99.90;;;;;;4897127;29;20305;-78
2023/04/19 09:10:55;;;;;;;13.40;12.03;;;13.20;99.90;;;;;;4903610;29;20212;-78
2023/04/19 09:13:23;;;;;;;13.17;11.87;;;12.90;99.90;;;;;;4903933;29;20224;-77
2023/04/19 09:15:52;;;;;;;14.13;12.80;;;13.20;99.90;;;;;;4899125;29;20210;-79
2023/04/19 09:18:19;;;;;;;17.17;15.47;;;13.20;99.90;;;;;;4895575;29;20301;-77
2023/04/19 09:20:46;;;;;;;14.37;12.70;;;13.40;99.90;;;;;;4895924;29;20193;-78
2023/04/19 09:23:15;;;;;;;17.27;15.70;;;13.50;99.90;;;;;;4898102;29;20202;-77
2023/04/19 09:25:53;;;;;;;13.43;12.10;;;13.40;99.90;;;;;;4893571;29;20206;-77
2023/04/19 09:28:20;;;;;;;14.90;13.60;;;13.40;99.90;;;;;;4896733;29;20807;-77
2023/04/19 09:30:49;;;;;;;14.40;13.20;;;13.40;99.90;;;;;;4897486;29;20258;-77
2023/04/19 09:33:32;;;;;;;14.73;13.33;;;13.40;99.90;;;;;;4898197;29;20227;-78
2023/04/19 09:36:00;;;;;;;14.60;13.30;;;13.30;99.90;;;;;;4890329;29;20239;-78
2023/04/19 09:38:27;;;;;;;16.17;14.87;;;13.40;99.90;;;;;;4905960;29;20205;-77
2023/04/19 09:41:06;;;;;;;15.73;14.33;;;13.40;99.90;;;;;;4901571;29;20207;-77
2023/04/19 09:43:34;;;;;;;16.30;14.80;;;13.60;99.90;;;;;;4900268;29;20285;-77
2023/04/19 09:46:02;;;;;;;12.77;11.43;;;13.70;99.90;;;;;;4901674;29;20198;-79
2023/04/19 09:48:29;;;;;;;12.77;11.43;;;13.90;99.90;;;;;;4902515;29;20195;-78
2023/04/19 09:50:57;;;;;;;13.67;12.37;;;14.00;99.90;;;;;;4900368;29;20193;-79
2023/04/19 09:53:25;;;;;;;14.13;12.83;;;14.10;99.90;;;;;;4902189;29;20303;-79
2023/04/19 09:55:53;;;;;;;14.43;13.03;;;14.00;99.90;;;;;;4902317;29;20276;-77
2023/04/19 09:58:20;;;;;;;15.47;14.00;;;13.90;99.90;;;;;;4904310;29;20249;-79
2023/04/19 10:00:50;;;;;;;14.43;13.13;;;13.90;99.90;;;;;;4898819;29;20195;-81
2023/04/19 10:03:20;;;;;;;14.20;12.90;;;14.00;99.90;;;;;;4908171;29;20204;-82
2023/04/19 10:05:48;;;;;;;14.93;13.70;;;14.40;99.90;;;;;;4907007;29;20268;-82
2023/04/19 10:08:16;;;;;;;14.13;12.93;;;14.50;99.90;;;;;;4907769;29;20223;-81
2023/04/19 10:10:48;;;;;;;11.83;10.73;;;14.80;99.90;;;;;;4908770;29;20202;-81
2023/04/19 10:13:21;;;;;;;11.63;10.43;;;15.00;99.90;;;;;;4906644;29;20214;-81
2023/04/19 10:15:48;;;;;;;12.10;10.80;;;15.00;99.90;;;;;;4907534;29;20272;-82
2023/04/19 10:18:16;;;;;;;12.23;10.90;;;14.90;99.90;;;;;;4904372;29;20716;-82
2023/04/19 10:20:51;;;;;;;12.93;11.13;;;14.90;99.90;;;;;;4905502;29;20211;-83
2023/04/19 10:23:19;;;;;;;12.20;11.00;;;14.90;99.90;;;;;;4905952;29;20206;-82
2023/04/19 10:25:49;;;;;;;12.50;11.20;;;14.90;99.90;;;;;;4898277;29;20212;-83
2023/04/19 10:28:16;;;;;;;11.87;10.67;;;15.00;99.90;;;;;;4901875;29;20289;-83
2023/04/19 10:30:53;;;;;;;12.33;11.07;;;14.90;99.90;;;;;;4904901;29;20219;-83
2023/04/19 10:33:26;;;;;;;11.77;10.67;;;14.70;99.90;;;;;;4903841;29;20228;-82
2023/04/19 10:35:57;;;;;;;10.97;9.87;;;14.40;99.90;;;;;;4896623;29;20216;-77
2023/04/19 10:38:38;;;;;;;12.47;11.17;;;14.20;99.90;;;;;;4900322;29;20653;-80
2023/04/19 10:41:10;;;;;;;12.20;11.00;;;14.00;99.90;;;;;;4902110;29;20206;-80
2023/04/19 10:43:38;;;;;;;10.53;9.53;;;14.20;99.90;;;;;;4901265;29;20224;-78
2023/04/19 10:46:13;;;;;;;10.23;9.13;;;14.50;99.90;;;;;;4900757;29;20199;-81
2023/04/19 10:48:53;;;;;;;11.03;9.93;;;14.80;99.90;;;;;;4899476;29;20199;-81
2023/04/19 10:51:27;;;;;;;12.17;10.63;;;14.60;99.90;;;;;;4894715;29;20204;-80
2023/04/19 10:53:56;;;;;;;12.70;11.70;;;14.20;99.90;;;;;;4895706;29;20281;-81
2023/04/19 10:57:10;;;;;;;12.67;11.43;;;14.40;99.90;;;;;;4901937;29;20252;-82
2023/04/19 10:59:37;;;;;;;11.13;10.00;;;14.60;99.90;;;;;;4893233;29;20212;-82
2023/04/19 11:02:05;;;;;;;10.20;9.20;;;14.90;99.90;;;;;;4896879;29;20200;-84
2023/04/19 11:05:10;;;;;;;10.17;9.17;;;15.10;99.90;;;;;;4900516;29;20700;-81
2023/04/19 11:07:42;;;;;;;11.00;9.97;;;15.00;99.90;;;;;;4902219;29;20261;-83
2023/04/19 11:10:10;;;;;;;10.77;9.67;;;15.00;99.90;;;;;;4900511;29;20205;-85
2023/04/19 11:12:37;;;;;;;10.13;9.10;;;15.00;99.90;;;;;;4903246;29;20245;-83
2023/04/19 11:15:08;;;;;;;11.30;10.30;;;15.10;99.90;;;;;;4895170;29;20197;-81
2023/04/19 11:17:36;;;;;;;12.10;10.97;;;15.30;99.90;;;;;;4888826;29;20229;-83
2023/04/19 11:20:07;;;;;;;12.23;11.13;;;15.40;99.90;;;;;;4896542;29;20216;-80
2023/04/19 11:22:34;;;;;;;10.77;9.73;;;15.40;99.90;;;;;;4891029;29;20221;-79
2023/04/19 11:25:10;;;;;;;11.37;10.37;;;15.40;99.90;;;;;;4900073;29;20264;-82
2023/04/19 11:27:38;;;;;;;11.77;10.77;;;15.10;99.90;;;;;;4891260;29;20225;-81
2023/04/19 11:30:06;;;;;;;11.77;10.77;;;15.10;99.90;;;;;;4896224;29;20209;-81
2023/04/19 11:32:33;;;;;;;11.40;10.30;;;15.00;99.90;;;;;;4884229;29;20277;-80
2023/04/19 11:35:06;;;;;;;10.80;9.90;;;14.90;99.90;;;;;;4888907;29;20208;-79
2023/04/19 11:37:33;;;;;;;14.30;13.20;;;14.90;99.90;;;;;;4882045;29;20727;-80
2023/04/19 11:40:00;;;;;;;14.63;13.33;;;14.80;99.90;;;;;;4886964;29;20637;-80
2023/04/19 11:42:28;;;;;;;15.63;14.53;;;14.80;99.90;;;;;;4883002;29;20199;-79
2023/04/19 11:44:57;;;;;;;15.23;14.03;;;14.90;99.90;;;;;;4884139;29;20230;-79
2023/04/19 11:47:24;;;;;;;16.07;14.77;;;14.90;99.90;;;;;;4888608;29;20893;-80
2023/04/19 11:49:50;;;;;;;16.07;14.70;;;15.00;99.90;;;;;;4892474;29;20212;-79
2023/04/19 11:52:22;;;;;;;16.83;15.50;;;15.00;99.90;;;;;;4897957;29;20668;-80
2023/04/19 11:54:49;;;;;;;15.47;14.20;;;14.80;99.90;;;;;;4890498;29;20567;-79
2023/04/19 11:57:28;;;;;;;14.10;13.00;;;14.90;99.90;;;;;;4886230;29;20747;-80
2023/04/19 12:00:06;;;;;;;12.50;11.40;;;15.00;99.90;;;;;;4887538;29;20731;-74
2023/04/19 12:02:40;;;;;;;14.00;12.80;;;14.90;99.90;;;;;;4883550;29;20272;-79
2023/04/19 12:05:12;;;;;;;13.63;12.40;;;14.80;99.90;;;;;;4887170;29;20210;-81
2023/04/19 12:08:00;;;;;;;13.17;12.00;;;14.80;99.90;;;;;;4891651;29;20233;-79
2023/04/19 12:10:27;;;;;;;14.70;13.53;;;14.80;99.90;;;;;;4891152;29;20746;-77
2023/04/19 12:12:55;;;;;;;16.07;14.77;;;14.90;99.90;;;;;;4881097;29;20716;-78
2023/04/19 12:15:22;;;;;;;15.20;14.10;;;14.90;99.90;;;;;;4892571;29;20204;-81
2023/04/19 12:18:00;;;;;;;13.27;11.87;;;14.80;99.90;;;;;;4879060;29;20640;-78
2023/04/19 12:20:32;;;;;;;11.40;10.27;;;14.90;99.90;;;;;;4886298;29;20246;-79
2023/04/19 12:22:59;;;;;;;10.87;9.87;;;14.70;99.90;;;;;;4878528;29;20208;-79
2023/04/19 12:25:29;;;;;;;11.10;10.07;;;14.80;99.90;;;;;;4878736;29;20205;-78
2023/04/19 12:27:57;;;;;;;11.70;10.47;;;15.00;99.90;;;;;;4885542;29;20696;-79
2023/04/19 12:30:25;;;;;;;10.17;9.13;;;15.00;99.90;;;;;;4882364;29;20232;-78
2023/04/19 12:32:54;;;;;;;15.70;14.40;;;14.90;99.90;;;;;;4884259;29;20218;-78
2023/04/19 12:35:21;;;;;;;10.37;9.43;;;14.80;99.90;;;;;;4882980;29;20269;-79
2023/04/19 12:37:48;;;;;;;15.73;14.13;;;14.70;99.90;;;;;;4883474;29;20321;-79
2023/04/19 12:40:15;;;;;;;10.23;9.00;;;14.40;99.90;;;;;;4881899;29;20199;-79
2023/04/19 12:42:42;;;;;;;9.37;8.33;;;14.20;99.90;;;;;;4886575;29;20714;-78